Time;durP1;ratioP1;P1;durP2;ratioP2;P2;SDS_P1;SDS_P2;PMS_P1;PMS_P2;Temp;Humidity;BMP_temperature;BMP_pressure;BME280_temperature;BME280_humidity;BME280_pressure;Samples;Min_cycle;Max_cycle;Signal;HPM_P1;HPM_P2
2024/02/04 00:05:58;;;;;;;0.00;0.00;;;;;;;7.30;82.25;101305.56;15832039;28;20047;-51
2024/02/04 00:13:32;;;;;;;0.00;0.00;;;;;;;7.15;81.23;101313.47;15858935;28;20044;-48
2024/02/04 00:21:08;;;;;;;0.00;0.00;;;;;;;7.08;80.89;101299.16;15797931;28;20063;-49
2024/02/04 00:28:42;;;;;;;1.85;1.35;;;;;;;7.22;80.43;101295.75;15734615;28;20373;-50
2024/02/04 00:36:19;;;;;;;0.00;0.00;;;;;;;6.81;80.93;101314.63;15730189;28;20048;-50
2024/02/04 00:43:52;;;;;;;0.00;0.00;;;;;;;7.08;79.52;101313.31;15713754;28;20041;-51
2024/02/04 00:51:28;;;;;;;0.00;0.00;;;;;;;6.95;79.25;101299.72;15731539;28;20386;-51
2024/02/04 00:59:04;;;;;;;0.00;0.00;;;;;;;6.73;80.73;101297.78;15778765;28;20040;-52
2024/02/04 01:06:42;;;;;;;0.15;0.10;;;;;;;7.11;79.45;101291.63;15735970;28;20045;-51
2024/02/04 01:14:17;;;;;;;0.00;0.00;;;;;;;6.92;80.52;101292.06;15723345;28;20261;-54
2024/02/04 01:21:53;;;;;;;0.00;0.00;;;;;;;7.01;80.49;101292.84;15741350;28;20040;-51
2024/02/04 01:29:28;;;;;;;0.80;0.80;;;;;;;7.04;81.18;101292.50;15788287;28;20152;-48
2024/02/04 01:37:05;;;;;;;0.00;0.00;;;;;;;6.62;82.29;101298.97;15785044;28;20492;-46
2024/02/04 01:44:38;;;;;;;0.00;0.00;;;;;;;6.35;82.66;101308.22;15775346;28;20609;-49
2024/02/04 01:52:14;;;;;;;0.00;0.00;;;;;;;6.44;82.81;101312.53;15785848;28;20095;-47
2024/02/04 01:59:53;;;;;;;0.00;0.00;;;;;;;6.59;81.86;101305.50;15766741;28;20439;-48
2024/02/04 02:07:35;;;;;;;1.15;0.45;;;;;;;6.57;82.03;101296.81;15787707;28;20162;-49
2024/02/04 02:15:19;;;;;;;0.00;0.00;;;;;;;6.35;82.96;101292.22;15782623;28;20334;-47
2024/02/04 02:23:07;;;;;;;0.00;0.00;;;;;;;6.64;82.26;101276.47;15782568;28;20440;-45
2024/02/04 02:30:42;;;;;;;0.55;0.55;;;;;;;6.35;82.98;101268.22;15798136;28;20047;-44
2024/02/04 02:38:26;;;;;;;0.55;0.55;;;;;;;6.24;84.20;101269.38;15798810;28;20040;-45
2024/02/04 02:46:01;;;;;;;0.00;0.00;;;;;;;6.55;83.42;101272.16;15784283;28;20070;-45
2024/02/04 02:53:37;;;;;;;0.00;0.00;;;;;;;6.50;83.21;101276.34;15796924;28;20036;-46
2024/02/04 03:01:16;;;;;;;0.00;0.00;;;;;;;6.42;83.84;101282.53;15794087;28;20449;-49
2024/02/04 03:08:50;;;;;;;0.22;0.22;;;;;;;6.49;83.07;101280.84;15792025;28;20048;-48
2024/02/04 03:16:36;;;;;;;5.68;0.45;;;;;;;6.29;83.45;101283.03;15792416;28;20257;-49
2024/02/04 03:24:11;;;;;;;0.15;0.15;;;;;;;6.71;82.54;101286.44;15795236;28;20447;-48
2024/02/04 03:31:49;;;;;;;0.00;0.00;;;;;;;6.44;82.68;101277.03;15779837;28;20093;-44
2024/02/04 03:39:26;;;;;;;0.00;0.00;;;;;;;6.24;83.44;101272.03;15801570;28;20032;-46
2024/02/04 03:47:03;;;;;;;0.08;0.08;;;;;;;6.29;82.60;101259.03;15795219;28;20048;-44
2024/02/04 03:54:44;;;;;;;0.00;0.00;;;;;;;6.21;82.43;101258.25;15779229;28;20090;-46
2024/02/04 04:02:22;;;;;;;0.00;0.00;;;;;;;6.01;82.75;101245.25;15778026;28;20034;-48
2024/02/04 04:10:02;;;;;;;0.00;0.00;;;;;;;6.11;82.00;101239.78;15801540;28;20086;-46
2024/02/04 04:17:40;;;;;;;0.17;0.17;;;;;;;5.72;82.81;101237.75;15777803;28;20060;-44
2024/02/04 04:25:16;;;;;;;2.53;1.35;;;;;;;6.26;79.93;101219.41;15794809;28;20054;-49
2024/02/04 04:33:00;;;;;;;0.70;0.70;;;;;;;5.60;82.46;101221.28;15795952;28;20356;-48
2024/02/04 04:40:35;;;;;;;0.65;0.55;;;;;;;5.78;81.99;101217.59;15788434;28;20128;-44
2024/02/04 04:48:15;;;;;;;0.00;0.00;;;;;;;5.74;81.22;101202.97;15785798;28;20118;-48
2024/02/04 04:55:54;;;;;;;0.13;0.13;;;;;;;5.58;81.93;101193.97;15805734;28;20044;-44
2024/02/04 05:03:29;;;;;;;0.00;0.00;;;;;;;5.59;81.80;101179.63;15805699;28;20135;-45
2024/02/04 05:11:05;;;;;;;0.00;0.00;;;;;;;5.66;81.51;101174.50;15787952;28;20051;-46
2024/02/04 05:18:42;;;;;;;0.00;0.00;;;;;;;5.32;82.58;101169.34;15804606;28;20416;-44
2024/02/04 05:26:18;;;;;;;0.10;0.10;;;;;;;5.44;82.40;101149.38;15811677;28;20092;-44
2024/02/04 05:33:54;;;;;;;0.00;0.00;;;;;;;5.43;82.50;101152.22;15803782;28;20555;-43
2024/02/04 05:41:31;;;;;;;0.00;0.00;;;;;;;5.67;81.46;101144.19;15802844;28;20063;-46
2024/02/04 05:49:06;;;;;;;0.00;0.00;;;;;;;5.53;81.88;101156.34;15805773;28;20035;-48
2024/02/04 05:56:45;;;;;;;0.15;0.15;;;;;;;5.84;81.17;101153.84;15861822;28;20276;-48
2024/02/04 06:04:27;;;;;;;0.00;0.00;;;;;;;5.78;82.10;101153.66;15805386;28;20428;-44
2024/02/04 06:12:01;;;;;;;0.00;0.00;;;;;;;5.73;82.24;101164.81;15806871;28;20044;-46
2024/02/04 06:19:37;;;;;;;0.00;0.00;;;;;;;5.98;81.33;101163.00;15783360;28;20036;-44
2024/02/04 06:27:13;;;;;;;0.00;0.00;;;;;;;6.00;81.14;101157.50;15831371;28;20047;-46
2024/02/04 06:34:48;;;;;;;;;;;;;;;6.04;81.50;101158.81;15809095;28;20059;-47
2024/02/04 06:42:22;;;;;;;0.00;0.00;;;;;;;6.13;81.04;101166.63;15781873;28;19920;-48
2024/02/04 06:49:56;;;;;;;;;;;;;;;5.81;83.01;101172.81;15780904;28;20043;-45
2024/02/04 06:57:31;;;;;;;0.00;0.00;;;;;;;6.01;82.39;101175.13;15798335;28;20214;-51
2024/02/04 07:05:10;;;;;;;0.17;0.17;;;;;;;6.17;82.10;101166.28;15798131;28;20044;-47
2024/02/04 07:12:46;;;;;;;0.00;0.00;;;;;;;6.43;81.14;101155.34;15798232;28;20048;-47
2024/02/04 07:20:23;;;;;;;0.00;0.00;;;;;;;6.19;81.07;101143.78;15803846;28;20156;-47
2024/02/04 07:27:58;;;;;;;0.00;0.00;;;;;;;6.27;80.90;101149.09;15823902;22;20075;-49
2024/02/04 07:35:33;;;;;;;0.00;0.00;;;;;;;6.30;80.56;101155.94;15792056;28;20131;-52
2024/02/04 07:43:09;;;;;;;0.70;0.45;;;;;;;6.36;79.64;101137.38;15788996;28;20040;-50
2024/02/04 07:50:45;;;;;;;0.00;0.00;;;;;;;6.52;78.83;101122.31;15781423;28;20464;-51
2024/02/04 07:58:18;;;;;;;0.10;0.10;;;;;;;6.36;78.72;101084.06;15782673;28;20127;-48
2024/02/04 08:05:57;;;;;;;0.00;0.00;;;;;;;6.66;77.71;101102.91;15787196;28;20047;-52
2024/02/04 08:13:37;;;;;;;2.80;1.65;;;;;;;7.13;76.52;101094.75;15789116;28;20064;-51
2024/02/04 08:21:19;;;;;;;0.00;0.00;;;;;;;7.10;75.71;101094.28;15790274;28;20075;-47
2024/02/04 08:28:53;;;;;;;0.30;0.30;;;;;;;6.89;76.22;101085.06;15744756;28;20131;-51
2024/02/04 08:36:30;;;;;;;0.00;0.00;;;;;;;7.16;74.75;101078.38;15749321;28;20041;-51
2024/02/04 08:44:05;;;;;;;0.30;0.30;;;;;;;7.11;74.42;101069.25;15788200;28;20032;-49
2024/02/04 08:51:41;;;;;;;0.00;0.00;;;;;;;7.24;73.23;101068.66;15808551;28;20040;-51
2024/02/04 08:59:18;;;;;;;0.00;0.00;;;;;;;7.45;72.89;101083.97;15812806;28;20070;-47
2024/02/04 09:06:53;;;;;;;0.20;0.20;;;;;;;7.55;72.42;101076.50;15811543;28;20438;-48
2024/02/04 09:14:29;;;;;;;0.00;0.00;;;;;;;7.39;72.44;101064.16;15752690;28;20572;-53
2024/02/04 09:22:05;;;;;;;0.00;0.00;;;;;;;7.37;71.40;101048.34;15753043;28;20412;-50
2024/02/04 09:29:38;;;;;;;0.32;0.32;;;;;;;7.47;70.08;101048.06;15808547;28;20040;-53
2024/02/04 09:37:14;;;;;;;0.00;0.00;;;;;;;7.69;69.75;101046.31;15806213;28;20089;-53
2024/02/04 09:44:50;;;;;;;0.55;0.55;;;;;;;8.11;67.51;101050.16;15811283;28;20042;-49
2024/02/04 09:52:30;;;;;;;0.00;0.00;;;;;;;8.22;66.72;101041.69;15869620;28;20035;-50
2024/02/04 10:00:08;;;;;;;0.00;0.00;;;;;;;8.12;66.25;101043.81;15789006;28;20109;-48
2024/02/04 10:07:47;;;;;;;0.00;0.00;;;;;;;8.13;66.38;101040.97;15815837;28;20052;-55
2024/02/04 10:15:21;;;;;;;0.00;0.00;;;;;;;8.18;64.44;101022.50;15813341;28;20495;-51
2024/02/04 10:22:56;;;;;;;;;;;;;;;8.30;65.59;101025.53;15869040;28;20126;-49
2024/02/04 10:30:31;;;;;;;0.05;0.05;;;;;;;8.27;64.42;101014.38;15843574;28;20015;-48
2024/02/04 10:38:07;;;;;;;0.00;0.00;;;;;;;8.28;64.29;101011.50;15849192;28;20434;-48
2024/02/04 10:45:44;;;;;;;0.00;0.00;;;;;;;8.38;64.87;101001.34;15844655;28;20047;-49
2024/02/04 10:53:21;;;;;;;0.00;0.00;;;;;;;8.36;64.69;100994.53;15787673;28;20048;-49
2024/02/04 11:00:56;;;;;;;0.35;0.32;;;;;;;8.35;65.09;100977.66;15793921;28;20036;-49
2024/02/04 11:08:32;;;;;;;0.03;0.03;;;;;;;8.67;63.73;100984.38;15786834;28;20075;-52
2024/02/04 11:16:24;;;;;;;0.20;0.10;;;;;;;8.30;63.89;100989.91;15812130;28;20051;-49
2024/02/04 11:24:16;;;;;;;0.00;0.00;;;;;;;8.34;63.57;100975.97;15837076;28;20134;-51
2024/02/04 11:31:52;;;;;;;0.00;0.00;;;;;;;8.32;63.31;100953.13;15848034;28;20389;-49
2024/02/04 11:39:27;;;;;;;0.00;0.00;;;;;;;8.59;62.63;100925.66;15812016;28;20080;-50
2024/02/04 11:47:01;;;;;;;0.00;0.00;;;;;;;8.35;61.86;100909.97;15840951;28;20044;-59
2024/02/04 11:54:36;;;;;;;0.00;0.00;;;;;;;8.60;61.61;100897.88;15820980;28;20333;-49
2024/02/04 12:02:11;;;;;;;0.95;0.45;;;;;;;8.57;61.03;100894.75;15864274;28;20040;-48
2024/02/04 12:09:48;;;;;;;0.30;0.30;;;;;;;8.61;61.23;100886.13;15805252;28;20067;-51
2024/02/04 12:17:22;;;;;;;0.00;0.00;;;;;;;8.25;61.60;100906.75;15804198;28;20048;-52
2024/02/04 12:24:57;;;;;;;;;;;;;;;8.21;62.13;100897.47;15852819;28;20043;-53
2024/02/04 12:32:30;;;;;;;0.00;0.00;;;;;;;8.41;61.14;100903.88;15840035;28;19923;-49
2024/02/04 12:40:07;;;;;;;0.38;0.38;;;;;;;8.30;61.05;100880.28;15800648;28;20071;-51
2024/02/04 12:47:41;;;;;;;0.00;0.00;;;;;;;8.49;61.21;100876.19;15833660;28;20051;-50
2024/02/04 12:55:24;;;;;;;;;;;;;;;8.71;60.74;100883.13;15864787;28;20051;-51
2024/02/04 13:02:59;;;;;;;0.00;0.00;;;;;;;7.96;61.60;100841.69;15864117;28;19919;-53
2024/02/04 13:10:35;;;;;;;0.00;0.00;;;;;;;8.35;61.05;100877.88;15817513;28;20050;-54
2024/02/04 13:18:11;;;;;;;0.00;0.00;;;;;;;8.58;60.84;100894.56;15792260;28;20354;-51
2024/02/04 13:25:47;;;;;;;0.22;0.13;;;;;;;8.39;61.29;100906.75;15841878;22;20064;-51
2024/02/04 13:33:20;;;;;;;0.22;0.22;;;;;;;8.21;62.38;100898.31;15727178;28;20036;-51
2024/02/04 13:40:55;;;;;;;0.13;0.13;;;;;;;8.40;62.39;100875.47;15695872;28;20052;-50
2024/02/04 13:48:29;;;;;;;0.00;0.00;;;;;;;8.23;62.58;100896.25;15680858;28;20055;-51
2024/02/04 13:56:05;;;;;;;0.00;0.00;;;;;;;8.27;62.37;100889.53;15671636;28;20033;-52
2024/02/04 14:03:39;;;;;;;0.05;0.05;;;;;;;8.25;62.70;100891.53;15680275;28;20037;-50
2024/02/04 14:11:17;;;;;;;0.00;0.00;;;;;;;8.30;62.69;100891.81;15676496;28;20568;-50
2024/02/04 14:18:53;;;;;;;0.10;0.10;;;;;;;8.21;63.77;100884.09;15678191;28;20324;-51
2024/02/04 14:26:27;;;;;;;;;;;;;;;8.00;63.43;100882.25;15655209;28;20107;-51
2024/02/04 14:34:02;;;;;;;4.72;1.58;;;;;;;8.28;63.01;100882.31;15679263;28;20368;-51
2024/02/04 14:41:38;;;;;;;0.00;0.00;;;;;;;8.36;62.58;100884.88;15680939;28;20059;-53
2024/02/04 14:49:12;;;;;;;0.08;0.08;;;;;;;8.32;62.97;100883.59;15678052;28;20515;-52
2024/02/04 14:56:48;;;;;;;1.17;0.65;;;;;;;8.19;63.16;100876.28;15677591;28;20464;-51
2024/02/04 15:04:32;;;;;;;0.00;0.00;;;;;;;8.24;62.69;100873.84;15680745;28;20040;-49
2024/02/04 15:12:14;;;;;;;0.00;0.00;;;;;;;8.10;63.19;100872.06;15728051;28;20052;-51
2024/02/04 15:19:48;;;;;;;0.00;0.00;;;;;;;8.18;62.73;100861.25;15702993;28;20087;-51
2024/02/04 15:27:27;;;;;;;0.15;0.15;;;;;;;8.36;62.01;100869.69;15675399;28;20041;-53
2024/02/04 15:35:03;;;;;;;0.00;0.00;;;;;;;8.25;62.22;100864.78;15657303;28;20077;-52
2024/02/04 15:42:42;;;;;;;0.00;0.00;;;;;;;8.39;61.84;100880.00;15674380;28;20121;-49
2024/02/04 15:50:18;;;;;;;0.00;0.00;;;;;;;8.03;62.66;100876.53;15656180;28;20037;-51
2024/02/04 15:57:54;;;;;;;0.00;0.00;;;;;;;8.03;63.64;100890.72;15656189;28;20049;-52
2024/02/04 16:05:29;;;;;;;0.05;0.05;;;;;;;7.98;63.85;100885.13;15671810;28;20044;-49
2024/02/04 16:13:09;;;;;;;0.00;0.00;;;;;;;8.23;63.30;100884.75;15670144;28;20041;-49
2024/02/04 16:20:43;;;;;;;0.00;0.00;;;;;;;8.20;63.75;100875.25;15672036;28;20079;-48
2024/02/04 16:28:18;;;;;;;0.00;0.00;;;;;;;8.10;64.05;100861.38;15660912;28;20061;-49
2024/02/04 16:35:52;;;;;;;8.80;1.10;;;;;;;8.19;64.17;100850.34;15652570;28;20041;-52
2024/02/04 16:43:27;;;;;;;0.60;0.60;;;;;;;8.19;64.24;100850.34;15688909;28;20187;-53
2024/02/04 16:51:01;;;;;;;0.03;0.03;;;;;;;8.03;65.07;100847.97;15671190;28;20217;-50
2024/02/04 16:58:37;;;;;;;0.10;0.10;;;;;;;8.16;64.71;100841.91;15712396;28;20439;-51
2024/02/04 17:06:11;;;;;;;0.00;0.00;;;;;;;8.06;65.45;100846.72;15681333;28;20070;-46
2024/02/04 17:13:48;;;;;;;0.00;0.00;;;;;;;8.01;65.56;100833.13;15680773;28;20114;-52
2024/02/04 17:21:32;;;;;;;0.00;0.00;;;;;;;7.98;65.65;100823.66;15674826;28;20072;-50
2024/02/04 17:29:09;;;;;;;0.00;0.00;;;;;;;7.96;65.92;100824.84;15679701;28;20037;-49
2024/02/04 17:36:44;;;;;;;0.00;0.00;;;;;;;8.18;66.51;100818.47;15671347;28;20502;-51
2024/02/04 17:44:19;;;;;;;0.00;0.00;;;;;;;8.06;67.75;100807.44;15673779;28;20474;-50
2024/02/04 17:51:52;;;;;;;0.00;0.00;;;;;;;7.90;68.65;100811.22;15667025;28;20065;-50
2024/02/04 17:59:27;;;;;;;;;;;;;;;7.86;69.37;100815.28;15672188;28;20484;-49
2024/02/04 18:07:00;;;;;;;0.00;0.00;;;;;;;7.95;69.02;100797.28;15663716;28;19920;-47
2024/02/04 18:14:38;;;;;;;0.00;0.00;;;;;;;7.90;68.97;100781.00;15708528;28;20537;-49
2024/02/04 18:22:16;;;;;;;0.22;0.22;;;;;;;7.74;70.50;100799.94;15688411;28;20037;-50
2024/02/04 18:29:52;;;;;;;0.00;0.00;;;;;;;7.65;71.14;100802.75;15676340;28;20485;-49
2024/02/04 18:37:26;;;;;;;0.00;0.00;;;;;;;7.82;70.61;100789.97;15653503;28;20124;-53
2024/02/04 18:45:01;;;;;;;0.00;0.00;;;;;;;7.68;70.17;100778.31;15679697;28;20113;-48
2024/02/04 18:52:36;;;;;;;0.00;0.00;;;;;;;7.65;71.08;100789.41;15678789;28;20037;-49
2024/02/04 19:00:12;;;;;;;0.00;0.00;;;;;;;7.67;71.02;100768.66;15669143;28;20520;-49
2024/02/04 19:07:46;;;;;;;0.00;0.00;;;;;;;7.59;71.94;100768.78;15656295;28;20052;-48
2024/02/04 19:15:21;;;;;;;0.00;0.00;;;;;;;7.70;72.49;100762.13;15670707;28;20047;-48
2024/02/04 19:22:55;;;;;;;0.00;0.00;;;;;;;7.58;73.76;100764.47;15671515;28;20041;-50
2024/02/04 19:30:31;;;;;;;1.02;1.02;;;;;;;7.43;75.44;100755.69;15687141;28;20043;-52
2024/02/04 19:38:06;;;;;;;1.10;0.95;;;;;;;7.44;77.57;100761.84;15683326;28;20041;-48
2024/02/04 19:45:41;;;;;;;0.15;0.15;;;;;;;7.56;77.98;100757.66;15638770;28;20049;-48
2024/02/04 19:53:15;;;;;;;0.00;0.00;;;;;;;7.26;79.33;100751.56;15726969;28;20374;-49
2024/02/04 20:00:54;;;;;;;0.10;0.10;;;;;;;7.21;80.18;100751.31;15734929;28;20052;-49
2024/02/04 20:08:29;;;;;;;0.45;0.45;;;;;;;6.99;81.44;100748.59;15678902;28;20252;-49
2024/02/04 20:16:05;;;;;;;0.00;0.00;;;;;;;6.90;81.73;100745.22;15694506;28;20048;-49
2024/02/04 20:23:40;;;;;;;0.00;0.00;;;;;;;6.86;82.48;100738.59;15666556;28;20072;-47
2024/02/04 20:31:16;;;;;;;1.70;0.50;;;;;;;6.98;81.90;100728.25;15713705;28;20037;-47
2024/02/04 20:38:52;;;;;;;0.00;0.00;;;;;;;6.86;82.64;100719.09;15673588;28;20053;-46
2024/02/04 20:46:28;;;;;;;0.00;0.00;;;;;;;7.02;82.15;100710.84;15684865;28;20526;-51
2024/02/04 20:54:07;;;;;;;0.25;0.25;;;;;;;6.79;82.83;100707.50;15662952;28;20053;-51
2024/02/04 21:01:42;;;;;;;0.00;0.00;;;;;;;6.87;83.47;100700.22;15680752;28;20490;-49
2024/02/04 21:09:16;;;;;;;0.00;0.00;;;;;;;6.89;84.65;100698.19;15724336;28;20048;-48
2024/02/04 21:16:51;;;;;;;0.17;0.17;;;;;;;6.76;85.38;100690.03;15673990;28;20441;-52
2024/02/04 21:24:25;;;;;;;0.00;0.00;;;;;;;6.81;85.79;100678.81;15679617;28;20493;-49
2024/02/04 21:32:00;;;;;;;0.00;0.00;;;;;;;6.57;88.01;100667.41;15661159;28;20529;-49
2024/02/04 21:39:35;;;;;;;0.00;0.00;;;;;;;6.92;87.32;100653.47;15707742;28;20100;-48
2024/02/04 21:47:10;;;;;;;0.03;0.03;;;;;;;6.79;87.87;100630.97;15660203;28;20045;-47
2024/02/04 21:54:45;;;;;;;0.35;0.35;;;;;;;6.84;87.25;100604.53;15677436;28;20572;-48
2024/02/04 22:02:20;;;;;;;0.00;0.00;;;;;;;7.22;85.90;100584.78;15661699;28;20045;-52
2024/02/04 22:09:53;;;;;;;0.00;0.00;;;;;;;7.00;86.41;100584.00;15738183;28;20045;-50
2024/02/04 22:17:32;;;;;;;0.00;0.00;;;;;;;7.01;86.37;100588.31;15737851;28;20037;-49
2024/02/04 22:25:06;;;;;;;0.00;0.00;;;;;;;7.06;87.68;100568.03;15719881;28;20052;-50
2024/02/04 22:32:41;;;;;;;0.00;0.00;;;;;;;7.31;86.62;100560.44;15671232;28;20057;-47
2024/02/04 22:40:15;;;;;;;0.00;0.00;;;;;;;6.88;88.13;100564.97;15674634;28;20064;-49
2024/02/04 22:47:50;;;;;;;0.00;0.00;;;;;;;7.18;88.00;100538.13;15662313;28;20453;-47
2024/02/04 22:55:26;;;;;;;0.00;0.00;;;;;;;7.23;88.30;100520.53;15670038;28;20455;-49
2024/02/04 23:03:01;;;;;;;0.03;0.03;;;;;;;7.11;88.87;100511.41;15651345;28;20391;-48
2024/02/04 23:10:36;;;;;;;1.85;0.47;;;;;;;7.60;86.77;100489.97;15672569;28;20188;-47
2024/02/04 23:18:11;;;;;;;0.00;0.00;;;;;;;7.44;86.12;100482.28;15654970;28;20044;-50
2024/02/04 23:25:45;;;;;;;0.00;0.00;;;;;;;7.67;86.23;100471.31;15671880;28;20131;-51
2024/02/04 23:33:20;;;;;;;0.00;0.00;;;;;;;7.61;86.79;100458.75;15672180;28;20045;-48
2024/02/04 23:40:53;;;;;;;0.10;0.10;;;;;;;7.62;88.11;100431.00;15671097;28;20056;-49
2024/02/04 23:48:28;;;;;;;;;;;;;;;7.36;90.94;100418.34;15646566;28;20029;-46
2024/02/04 23:56:02;;;;;;;0.00;0.00;;;;;;;7.74;92.44;100407.22;15707665;28;19924;-48
